CheckWX is a tool to help pilots better visualize weather data.  It is not intended as a substitute for an official pre-flight weather briefing.

06:21:12 UTC

KMTN TAF
Martin State Airport
Baltimore, Maryland, USA
KMTN 140533Z 1406/1506 12006KT P6SM FEW030 SCT200 FM141000 15004KT P6SM FEW250 FM141300 19004KT P6SM FEW250 FM150100 22004KT P6SM SCT150 FM150400 VRB03KT P6SM BKN150 AMD NOT SKED

Nov-14@
06:00 UTC

Nov-14 @ 06:00 UTC

Nov-14@
10:00 UTC

Nov-14 @ 10:00 UTC

KMTN 140533Z 1406/1506 12006KT P6SM FEW030 SCT200
Wind
  • 120° at 6 KTS
Cloud Levels
  • Few at 3,000' AGL
  • Scattered at 20,000' AGL

Nov-14@
10:00 UTC

Nov-14 @ 10:00 UTC

Nov-14@
13:00 UTC

Nov-14 @ 13:00 UTC

FM141000 15004KT P6SM FEW250

From

From Standard forecast or significant change

Wind
  • 150° at 4 KTS
Cloud Levels
  • Few at 25,000' AGL

Nov-14@
13:00 UTC

Nov-14 @ 13:00 UTC

Nov-15@
01:00 UTC

Nov-15 @ 01:00 UTC

FM141300 19004KT P6SM FEW250

From

From Standard forecast or significant change

Wind
  • 190° at 4 KTS
Cloud Levels
  • Few at 25,000' AGL

Nov-15@
01:00 UTC

Nov-15 @ 01:00 UTC

Nov-15@
04:00 UTC

Nov-15 @ 04:00 UTC

FM150100 22004KT P6SM SCT150

From

From Standard forecast or significant change

Wind
  • 220° at 4 KTS
Cloud Levels
  • Scattered at 15,000' AGL

Nov-15@
04:00 UTC

Nov-15 @ 04:00 UTC

Nov-15@
06:00 UTC

Nov-15 @ 06:00 UTC

FM150400 VRB03KT P6SM BKN150 AMD NOT SKED

From

From Standard forecast or significant change

Wind
  • Variable at 3 KTS
Cloud Levels
  • Broken at 15,000' AGL